Time;durP1;ratioP1;P1;durP2;ratioP2;P2;SDS_P1;SDS_P2;PMS_P1;PMS_P2;Temp;Humidity;BMP_temperature;BMP_pressure;BME280_temperature;BME280_humidity;BME280_pressure;Samples;Min_cycle;Max_cycle;Signal;HPM_P1;HPM_P2
2020/12/27 00:00:27;;;;;;;2.92;2.60;;;6.40;85.50;;;;;;5093703;28;20024;-74
2020/12/27 00:02:53;;;;;;;2.20;2.00;;;6.40;85.50;;;;;;5093524;28;20036;-74
2020/12/27 00:05:20;;;;;;;2.13;1.92;;;6.40;85.70;;;;;;5094978;28;20036;-74
2020/12/27 00:07:46;;;;;;;2.63;2.03;;;6.40;85.60;;;;;;5094879;28;20026;-74
2020/12/27 00:10:12;;;;;;;4.15;2.45;;;6.40;85.70;;;;;;5093454;28;20476;-75
2020/12/27 00:12:38;;;;;;;2.40;2.20;;;6.40;85.80;;;;;;5093498;28;20036;-74
2020/12/27 00:15:04;;;;;;;2.10;1.92;;;6.40;85.70;;;;;;5093500;28;20032;-75
2020/12/27 00:17:30;;;;;;;2.83;2.10;;;6.40;85.60;;;;;;5093335;28;20391;-75
2020/12/27 00:19:56;;;;;;;2.17;1.98;;;6.40;85.60;;;;;;5093199;28;20059;-75
2020/12/27 00:22:21;;;;;;;2.20;2.00;;;6.40;85.60;;;;;;5094821;28;20501;-74
2020/12/27 00:24:48;;;;;;;1.88;1.77;;;6.40;85.20;;;;;;5094815;28;20051;-74
2020/12/27 00:27:13;;;;;;;2.17;1.98;;;6.40;85.30;;;;;;5093228;28;20070;-74
2020/12/27 00:29:40;;;;;;;1.98;1.77;;;6.40;85.20;;;;;;5093145;28;20487;-74
2020/12/27 00:32:06;;;;;;;1.90;1.80;;;6.40;85.10;;;;;;5093211;28;20551;-74
2020/12/27 00:34:31;;;;;;;2.97;1.80;;;6.40;85.20;;;;;;5093144;28;20095;-75
2020/12/27 00:36:58;;;;;;;2.88;2.30;;;6.40;84.90;;;;;;5092908;28;20032;-75
2020/12/27 00:39:24;;;;;;;3.25;2.10;;;6.40;84.80;;;;;;5094369;28;20099;-74
2020/12/27 00:41:50;;;;;;;2.17;1.90;;;6.30;84.80;;;;;;5094439;28;20024;-74
2020/12/27 00:44:17;;;;;;;2.25;1.90;;;6.30;84.80;;;;;;5092853;28;20027;-74
2020/12/27 00:46:47;;;;;;;1.77;1.67;;;6.30;84.70;;;;;;5092815;28;20016;-74
2020/12/27 00:49:13;;;;;;;4.25;2.22;;;6.30;84.70;;;;;;5094130;28;20107;-75
2020/12/27 00:51:38;;;;;;;2.10;1.92;;;6.40;84.70;;;;;;5094271;28;20524;-75
2020/12/27 00:54:04;;;;;;;2.08;1.60;;;6.30;84.60;;;;;;5094001;28;20024;-74
2020/12/27 00:56:29;;;;;;;3.25;2.00;;;6.40;85.10;;;;;;5093884;28;20114;-74
2020/12/27 00:59:14;;;;;;;2.20;1.88;;;6.30;85.20;;;;;;5093465;28;20376;-74
2020/12/27 01:01:39;;;;;;;2.60;1.92;;;6.30;85.20;;;;;;5092436;28;20032;-75
2020/12/27 01:04:05;;;;;;;2.20;1.65;;;6.30;85.10;;;;;;5092270;28;20031;-75
2020/12/27 01:06:30;;;;;;;2.50;2.00;;;6.30;85.10;;;;;;5092828;28;20020;-75
2020/12/27 01:08:56;;;;;;;1.73;1.63;;;6.30;84.80;;;;;;5093983;28;20066;-74
2020/12/27 01:11:22;;;;;;;2.45;1.92;;;6.30;85.00;;;;;;5093903;28;20035;-75
2020/12/27 01:13:48;;;;;;;2.10;1.90;;;6.30;84.60;;;;;;5092432;28;20038;-74
2020/12/27 01:16:18;;;;;;;2.25;1.75;;;6.30;84.40;;;;;;5092205;28;20509;-75
2020/12/27 01:18:45;;;;;;;3.05;1.88;;;6.30;84.30;;;;;;5092189;28;20434;-75
2020/12/27 01:21:11;;;;;;;3.25;1.80;;;6.30;84.40;;;;;;5093520;28;20028;-74
2020/12/27 01:23:37;;;;;;;2.28;1.90;;;6.30;84.40;;;;;;5093427;28;20123;-75
2020/12/27 01:26:02;;;;;;;2.60;1.90;;;6.30;84.40;;;;;;5091908;28;20127;-74
2020/12/27 01:28:28;;;;;;;2.33;1.95;;;6.30;84.40;;;;;;5093418;28;20028;-75
2020/12/27 01:30:53;;;;;;;2.30;1.95;;;6.30;84.30;;;;;;5091944;28;20035;-75
2020/12/27 01:33:19;;;;;;;2.75;2.00;;;6.30;84.40;;;;;;5093493;28;20027;-74
2020/12/27 01:35:45;;;;;;;2.65;2.10;;;6.30;84.30;;;;;;5091821;28;20036;-75
2020/12/27 01:38:14;;;;;;;2.42;2.22;;;6.30;84.40;;;;;;5091795;28;20517;-74
2020/12/27 01:40:40;;;;;;;2.47;1.88;;;6.20;83.90;;;;;;5091675;28;20089;-75
2020/12/27 01:43:06;;;;;;;2.50;2.22;;;6.20;84.00;;;;;;5091708;28;20054;-74
2020/12/27 01:45:32;;;;;;;4.03;2.35;;;6.20;84.00;;;;;;5091982;28;20024;-74
2020/12/27 01:47:58;;;;;;;2.55;2.30;;;6.20;83.90;;;;;;5091878;28;20024;-75
2020/12/27 01:50:25;;;;;;;3.40;2.40;;;6.20;83.80;;;;;;5091699;28;20036;-75
2020/12/27 01:52:51;;;;;;;2.67;2.30;;;6.20;84.80;;;;;;5091609;28;20123;-74
2020/12/27 01:55:18;;;;;;;3.10;2.40;;;6.20;84.60;;;;;;5091663;28;20066;-74
2020/12/27 01:57:52;;;;;;;3.28;2.38;;;6.20;84.60;;;;;;5091292;28;20051;-74
2020/12/27 02:00:18;;;;;;;3.20;2.25;;;6.20;84.50;;;;;;5091496;28;20089;-74
2020/12/27 02:02:44;;;;;;;2.50;1.88;;;6.20;84.40;;;;;;5091593;28;20421;-74
2020/12/27 02:05:11;;;;;;;3.38;2.20;;;6.20;84.40;;;;;;5093221;28;20035;-75
2020/12/27 02:07:37;;;;;;;3.95;2.40;;;6.20;84.30;;;;;;5092905;28;20451;-75
2020/12/27 02:10:03;;;;;;;2.40;2.17;;;6.20;84.40;;;;;;5088442;28;20043;-75
2020/12/27 02:12:28;;;;;;;3.00;2.22;;;6.20;84.60;;;;;;5092771;28;20027;-75
2020/12/27 02:14:54;;;;;;;3.33;2.50;;;6.20;84.10;;;;;;5091270;28;20428;-74
2020/12/27 02:17:20;;;;;;;2.58;2.20;;;6.20;84.00;;;;;;5091857;28;20035;-75
2020/12/27 02:19:45;;;;;;;2.88;2.20;;;6.20;83.90;;;;;;5092824;28;20020;-75
2020/12/27 02:22:11;;;;;;;2.63;2.10;;;6.20;83.80;;;;;;5091273;28;20028;-75
2020/12/27 02:24:37;;;;;;;3.15;2.30;;;6.20;84.00;;;;;;5091417;28;20020;-75
2020/12/27 02:27:04;;;;;;;2.80;2.22;;;6.20;84.20;;;;;;5092433;28;20161;-74
2020/12/27 02:29:30;;;;;;;2.63;2.40;;;6.20;84.00;;;;;;5091085;28;20419;-74
2020/12/27 02:31:56;;;;;;;2.28;2.03;;;6.10;83.70;;;;;;5090906;28;20024;-74
2020/12/27 02:34:23;;;;;;;3.63;2.20;;;6.10;84.00;;;;;;5090969;28;20042;-75
2020/12/27 02:36:50;;;;;;;2.67;2.20;;;6.20;84.70;;;;;;5090911;28;20371;-74
2020/12/27 02:39:18;;;;;;;3.35;2.13;;;6.20;84.60;;;;;;5090874;28;20024;-74
2020/12/27 02:41:47;;;;;;;3.85;2.60;;;6.10;85.60;;;;;;5092227;28;20027;-75
2020/12/27 02:44:13;;;;;;;2.78;2.38;;;6.10;85.30;;;;;;5092200;28;20115;-75
2020/12/27 02:46:39;;;;;;;3.70;2.15;;;6.20;85.40;;;;;;5092097;28;20105;-74
2020/12/27 02:49:04;;;;;;;3.15;2.63;;;6.10;85.00;;;;;;5090708;28;20059;-74
2020/12/27 02:51:30;;;;;;;3.28;2.45;;;6.10;84.90;;;;;;5092586;28;20387;-74
2020/12/27 02:53:58;;;;;;;3.92;2.40;;;6.10;85.10;;;;;;5090610;28;20044;-74
2020/12/27 02:56:25;;;;;;;3.08;2.20;;;6.10;85.50;;;;;;5092185;28;20092;-75
2020/12/27 02:58:53;;;;;;;4.70;2.80;;;6.10;84.90;;;;;;5090450;28;20048;-74
2020/12/27 03:01:19;;;;;;;2.53;2.30;;;6.10;84.40;;;;;;5090753;28;20433;-75
2020/12/27 03:03:45;;;;;;;2.92;2.38;;;6.20;84.90;;;;;;5091980;28;20107;-74
2020/12/27 03:06:11;;;;;;;4.95;2.40;;;6.10;84.80;;;;;;5091955;28;20118;-74
2020/12/27 03:08:38;;;;;;;3.33;2.72;;;6.10;85.80;;;;;;5090644;28;20455;-74
2020/12/27 03:11:04;;;;;;;3.70;2.30;;;6.10;86.60;;;;;;5090691;28;20032;-74
2020/12/27 03:13:31;;;;;;;3.60;2.30;;;6.10;86.10;;;;;;5092026;28;20184;-74
2020/12/27 03:15:57;;;;;;;2.67;2.10;;;6.10;86.80;;;;;;5090580;28;20051;-74
2020/12/27 03:18:23;;;;;;;2.95;2.15;;;6.10;86.20;;;;;;5092018;28;20032;-75
2020/12/27 03:20:50;;;;;;;3.03;2.30;;;6.10;86.10;;;;;;5090465;28;20093;-74
2020/12/27 03:23:16;;;;;;;3.70;2.42;;;6.10;85.80;;;;;;5092199;28;20081;-74
2020/12/27 03:25:42;;;;;;;2.78;2.22;;;6.10;86.10;;;;;;5091751;28;20051;-74
2020/12/27 03:28:09;;;;;;;4.03;2.45;;;6.10;85.80;;;;;;5094187;28;20020;-75
2020/12/27 03:30:34;;;;;;;2.97;1.88;;;6.10;85.40;;;;;;5094203;28;20036;-75
2020/12/27 03:33:00;;;;;;;2.50;2.20;;;6.10;86.00;;;;;;5095527;28;20107;-74
2020/12/27 03:35:26;;;;;;;2.92;2.00;;;6.10;85.80;;;;;;5095408;28;20472;-75
2020/12/27 03:37:51;;;;;;;2.78;2.17;;;6.10;85.70;;;;;;5093998;28;20047;-75
2020/12/27 03:40:17;;;;;;;2.20;1.95;;;6.10;86.60;;;;;;5094000;28;20460;-74
2020/12/27 03:42:43;;;;;;;2.47;1.90;;;6.10;86.40;;;;;;5095511;28;20059;-74
2020/12/27 03:45:08;;;;;;;2.78;1.85;;;6.10;86.80;;;;;;5093894;28;20027;-74
2020/12/27 03:47:34;;;;;;;2.22;1.90;;;6.10;87.10;;;;;;5093964;28;20035;-75
2020/12/27 03:49:59;;;;;;;2.55;2.10;;;6.10;86.80;;;;;;5095205;28;20024;-74
2020/12/27 03:52:25;;;;;;;2.78;1.90;;;6.10;86.80;;;;;;5093772;28;20028;-74
2020/12/27 03:54:51;;;;;;;2.10;1.90;;;6.10;86.80;;;;;;5095086;28;20427;-75
2020/12/27 03:57:16;;;;;;;5.13;2.10;;;6.10;86.70;;;;;;5093403;28;20119;-74
2020/12/27 03:59:42;;;;;;;3.03;2.20;;;6.10;86.50;;;;;;5093577;28;20131;-75
2020/12/27 04:02:08;;;;;;;2.80;1.90;;;6.00;86.40;;;;;;5093548;28;20386;-74
2020/12/27 04:04:33;;;;;;;2.65;1.90;;;6.10;86.50;;;;;;5093350;28;20364;-74
2020/12/27 04:06:59;;;;;;;2.25;1.90;;;6.10;86.80;;;;;;5094824;28;20116;-75
2020/12/27 04:09:24;;;;;;;2.83;2.05;;;6.10;86.50;;;;;;5095016;28;20115;-74
2020/12/27 04:11:50;;;;;;;2.25;2.05;;;6.10;87.30;;;;;;5093363;28;20107;-74
2020/12/27 04:14:16;;;;;;;2.40;2.00;;;6.00;86.70;;;;;;5094719;28;20024;-74
2020/12/27 04:16:42;;;;;;;2.97;2.10;;;6.10;86.40;;;;;;5093215;28;20023;-75
2020/12/27 04:19:07;;;;;;;2.35;1.92;;;6.10;86.30;;;;;;5094504;28;20027;-74
2020/12/27 04:21:33;;;;;;;2.22;1.88;;;6.10;86.10;;;;;;5093451;28;20356;-74
2020/12/27 04:23:58;;;;;;;2.22;1.90;;;6.10;86.30;;;;;;5093420;28;20020;-75
2020/12/27 04:26:24;;;;;;;3.22;2.28;;;6.10;87.30;;;;;;5094733;28;20035;-74
2020/12/27 04:28:50;;;;;;;4.25;2.05;;;6.10;86.20;;;;;;5093020;28;20503;-74
2020/12/27 04:31:20;;;;;;;2.30;2.00;;;6.10;85.70;;;;;;5094562;28;20483;-75
2020/12/27 04:33:49;;;;;;;2.17;1.90;;;6.10;85.70;;;;;;5093035;28;20032;-74
2020/12/27 04:36:19;;;;;;;3.03;1.70;;;6.10;85.40;;;;;;5094598;28;20090;-74
2020/12/27 04:38:45;;;;;;;1.92;1.50;;;6.10;85.20;;;;;;5092160;28;20077;-74
2020/12/27 04:41:16;;;;;;;1.70;1.58;;;6.10;85.20;;;;;;5092942;28;20028;-74
2020/12/27 04:43:43;;;;;;;2.25;1.73;;;6.10;85.20;;;;;;5093995;28;20024;-74
2020/12/27 04:46:11;;;;;;;2.33;1.80;;;6.10;85.20;;;;;;5092763;28;20424;-74
2020/12/27 04:48:38;;;;;;;3.03;1.70;;;6.10;85.20;;;;;;5092601;28;20020;-74
2020/12/27 04:51:05;;;;;;;3.38;1.67;;;6.10;85.10;;;;;;5092627;28;20032;-74
2020/12/27 04:53:33;;;;;;;1.85;1.38;;;6.20;85.10;;;;;;5094059;28;20313;-74
2020/12/27 04:56:00;;;;;;;1.63;1.48;;;6.20;85.00;;;;;;5092588;28;20027;-74
2020/12/27 04:58:26;;;;;;;1.40;1.30;;;6.20;84.90;;;;;;5093722;28;20051;-74
2020/12/27 05:00:52;;;;;;;1.60;1.50;;;6.20;84.70;;;;;;5092607;28;20032;-74
2020/12/27 05:03:17;;;;;;;1.63;1.38;;;6.20;84.80;;;;;;5092511;28;20116;-75
2020/12/27 05:05:47;;;;;;;1.88;1.50;;;6.20;85.00;;;;;;5093739;28;20074;-75
2020/12/27 05:08:13;;;;;;;1.88;1.40;;;6.20;85.50;;;;;;5092331;28;20039;-75
2020/12/27 05:10:40;;;;;;;1.50;1.23;;;6.20;85.20;;;;;;5092306;28;20436;-75
2020/12/27 05:13:07;;;;;;;2.25;1.38;;;6.20;85.20;;;;;;5092266;28;20501;-75
2020/12/27 05:15:37;;;;;;;1.67;1.30;;;6.30;85.20;;;;;;5093658;28;20095;-75
2020/12/27 05:18:04;;;;;;;1.20;1.10;;;6.20;85.00;;;;;;5091989;28;20064;-74
2020/12/27 05:20:32;;;;;;;2.63;1.30;;;6.30;85.00;;;;;;5092088;28;20103;-74
2020/12/27 05:22:59;;;;;;;1.58;1.48;;;6.20;85.20;;;;;;5092133;28;20068;-74
2020/12/27 05:25:25;;;;;;;1.85;1.38;;;6.30;86.40;;;;;;5092317;28;20355;-74
2020/12/27 05:27:54;;;;;;;1.52;1.23;;;6.30;86.70;;;;;;5093303;28;20024;-74
2020/12/27 05:30:25;;;;;;;1.20;1.10;;;6.20;86.90;;;;;;5091901;28;20380;-75
2020/12/27 05:32:51;;;;;;;1.77;1.20;;;6.20;86.80;;;;;;5093235;28;20028;-74
2020/12/27 05:35:16;;;;;;;1.67;1.20;;;6.20;87.10;;;;;;5093230;28;20116;-75
2020/12/27 05:37:42;;;;;;;1.75;1.13;;;6.20;87.30;;;;;;5093279;28;20047;-74
2020/12/27 05:40:08;;;;;;;1.20;1.10;;;6.20;87.20;;;;;;5093214;28;20541;-74
2020/12/27 05:42:35;;;;;;;1.40;1.00;;;6.20;87.30;;;;;;5093028;28;20043;-74
2020/12/27 05:45:15;;;;;;;1.13;1.02;;;6.20;87.10;;;;;;5091529;28;20027;-74
2020/12/27 05:47:43;;;;;;;1.80;1.05;;;6.20;86.80;;;;;;5092997;28;20024;-74
2020/12/27 05:50:12;;;;;;;1.50;0.95;;;6.20;87.30;;;;;;5092562;28;20086;-74
2020/12/27 05:52:49;;;;;;;2.22;0.85;;;6.20;87.00;;;;;;5092286;28;20047;-75
2020/12/27 05:55:18;;;;;;;1.75;1.02;;;6.20;87.30;;;;;;5091346;28;20036;-74
2020/12/27 05:57:51;;;;;;;1.10;1.00;;;6.20;87.50;;;;;;5092420;28;20387;-74
2020/12/27 06:00:21;;;;;;;1.25;0.73;;;6.10;87.50;;;;;;5091430;28;20051;-74
2020/12/27 06:02:57;;;;;;;1.70;1.00;;;6.10;87.50;;;;;;5092739;28;20028;-75
2020/12/27 06:05:54;;;;;;;0.93;0.80;;;6.10;87.50;;;;;;5093071;28;20383;-74
2020/12/27 06:08:28;;;;;;;0.95;0.85;;;6.10;88.00;;;;;;5092978;28;20027;-74
2020/12/27 06:11:00;;;;;;;1.27;0.70;;;6.10;87.90;;;;;;5093016;28;20026;-74
2020/12/27 06:13:25;;;;;;;0.80;0.73;;;6.10;87.70;;;;;;5091550;28;20036;-74
2020/12/27 06:15:56;;;;;;;0.80;0.68;;;6.10;88.60;;;;;;5091351;28;20035;-76
2020/12/27 06:18:26;;;;;;;0.63;0.60;;;6.10;88.40;;;;;;5091191;28;20093;-74
2020/12/27 06:21:19;;;;;;;1.05;0.80;;;6.10;88.00;;;;;;5092577;28;20059;-74
2020/12/27 06:23:46;;;;;;;1.03;0.70;;;6.10;88.20;;;;;;5090187;28;20144;-74
2020/12/27 06:26:12;;;;;;;0.73;0.73;;;6.10;88.20;;;;;;5091249;28;20103;-74
2020/12/27 06:28:38;;;;;;;0.75;0.70;;;6.20;88.50;;;;;;5091235;28;20056;-74
2020/12/27 06:31:10;;;;;;;1.27;0.63;;;6.10;88.90;;;;;;5091024;28;20071;-75
2020/12/27 06:33:41;;;;;;;0.55;0.50;;;6.10;88.50;;;;;;5091098;28;20503;-74
2020/12/27 06:36:27;;;;;;;0.80;0.60;;;6.10;88.30;;;;;;5092350;28;20032;-74
2020/12/27 06:38:52;;;;;;;0.50;0.50;;;6.10;88.80;;;;;;5090827;28;20506;-74
2020/12/27 06:41:18;;;;;;;0.60;0.60;;;6.10;88.80;;;;;;5091059;28;20115;-74
2020/12/27 06:43:45;;;;;;;0.65;0.57;;;6.10;89.00;;;;;;5091196;28;20024;-74
2020/12/27 06:46:28;;;;;;;1.50;0.70;;;6.10;89.10;;;;;;5092575;28;20020;-74
2020/12/27 06:49:14;;;;;;;0.80;0.60;;;6.10;89.40;;;;;;5092464;28;20032;-75
2020/12/27 06:51:44;;;;;;;0.73;0.60;;;6.20;89.40;;;;;;5090963;28;20306;-74
2020/12/27 06:54:10;;;;;;;0.60;0.60;;;6.10;89.30;;;;;;5090968;28;20043;-74
2020/12/27 06:56:44;;;;;;;0.80;0.65;;;6.10;89.20;;;;;;5090974;28;20440;-74
2020/12/27 06:59:10;;;;;;;0.60;0.60;;;6.10;89.90;;;;;;5090778;28;20048;-75
2020/12/27 07:01:35;;;;;;;0.70;0.60;;;6.10;90.00;;;;;;5092420;28;20032;-74
2020/12/27 07:04:20;;;;;;;1.35;0.60;;;6.10;90.10;;;;;;5096059;28;20061;-74
2020/12/27 07:06:48;;;;;;;0.90;0.70;;;6.10;90.10;;;;;;5096327;28;20024;-74
2020/12/27 07:09:27;;;;;;;1.67;0.77;;;6.10;90.40;;;;;;5096194;28;20077;-74
2020/12/27 07:12:03;;;;;;;1.00;0.70;;;6.10;90.40;;;;;;5096097;28;20028;-74
2020/12/27 07:14:29;;;;;;;0.60;0.60;;;6.20;90.70;;;;;;5094687;28;20028;-74
2020/12/27 07:16:58;;;;;;;1.30;0.73;;;6.20;90.90;;;;;;5095981;28;20028;-74
2020/12/27 07:19:25;;;;;;;0.90;0.63;;;6.20;91.00;;;;;;5094595;28;20103;-74
2020/12/27 07:21:50;;;;;;;0.50;0.40;;;6.20;90.60;;;;;;5094604;28;20024;-74
2020/12/27 07:24:22;;;;;;;0.30;0.30;;;6.20;90.40;;;;;;5095059;28;20049;-75
2020/12/27 07:26:48;;;;;;;0.63;0.40;;;6.20;90.30;;;;;;5094682;28;20024;-74
2020/12/27 07:29:20;;;;;;;0.35;0.35;;;6.20;90.30;;;;;;5095824;28;20024;-74
2020/12/27 07:31:46;;;;;;;0.68;0.50;;;6.20;90.40;;;;;;5095666;28;20028;-74
2020/12/27 07:34:14;;;;;;;0.88;0.47;;;6.20;90.90;;;;;;5096080;28;20024;-74
2020/12/27 07:36:40;;;;;;;0.50;0.32;;;6.20;90.80;;;;;;5095650;28;20036;-74
2020/12/27 07:39:10;;;;;;;0.45;0.45;;;6.30;90.70;;;;;;5094423;28;20037;-75
2020/12/27 07:41:40;;;;;;;0.90;0.80;;;6.30;90.70;;;;;;5095702;28;20028;-74
2020/12/27 07:44:13;;;;;;;0.50;0.50;;;6.30;90.70;;;;;;5094088;28;20016;-74
2020/12/27 07:46:39;;;;;;;;;;;6.30;90.70;;;;;;5094509;28;20028;-74
2020/12/27 07:49:12;;;;;;;0.60;0.50;;;6.30;90.60;;;;;;5094182;28;19999;-74
2020/12/27 07:51:38;;;;;;;0.35;0.35;;;6.30;90.60;;;;;;5094143;28;20028;-74
2020/12/27 07:54:04;;;;;;;0.52;0.40;;;6.30;90.80;;;;;;5094412;28;20502;-74
2020/12/27 07:56:31;;;;;;;0.82;0.30;;;6.30;90.70;;;;;;5095642;28;20028;-74
2020/12/27 07:58:58;;;;;;;0.20;0.20;;;6.40;90.80;;;;;;5093694;28;20116;-74
2020/12/27 08:01:33;;;;;;;0.57;0.40;;;6.40;90.60;;;;;;5093852;28;20024;-74
2020/12/27 08:04:06;;;;;;;0.50;0.45;;;6.40;90.40;;;;;;5095585;28;20029;-74
2020/12/27 08:06:34;;;;;;;0.60;0.50;;;6.40;90.30;;;;;;5095066;28;20089;-75
2020/12/27 08:09:09;;;;;;;0.45;0.32;;;6.40;90.70;;;;;;5094912;28;20051;-73
2020/12/27 08:11:37;;;;;;;0.35;0.35;;;6.40;90.60;;;;;;5093626;28;20031;-74
2020/12/27 08:14:07;;;;;;;0.98;0.43;;;6.40;90.50;;;;;;5093739;28;20024;-74
2020/12/27 08:16:36;;;;;;;0.63;0.30;;;6.50;90.50;;;;;;5093276;28;20017;-72
2020/12/27 08:19:04;;;;;;;0.50;0.43;;;6.50;90.30;;;;;;5093150;28;20031;-74
2020/12/27 08:21:31;;;;;;;0.40;0.32;;;6.50;90.50;;;;;;5094706;28;20032;-74
2020/12/27 08:23:58;;;;;;;0.60;0.30;;;6.50;90.50;;;;;;5093222;28;20033;-74
2020/12/27 08:26:24;;;;;;;0.65;0.35;;;6.50;90.40;;;;;;5094856;28;20020;-74
2020/12/27 08:28:50;;;;;;;0.52;0.40;;;6.60;90.70;;;;;;5093110;28;20047;-74
2020/12/27 08:31:28;;;;;;;0.50;0.40;;;6.60;90.40;;;;;;5094206;28;20390;-75
2020/12/27 08:34:09;;;;;;;1.08;0.50;;;6.60;90.40;;;;;;5093473;28;20031;-74
2020/12/27 08:36:35;;;;;;;0.32;0.30;;;6.60;90.30;;;;;;5094319;28;20513;-75
2020/12/27 08:39:28;;;;;;;0.47;0.40;;;6.60;90.20;;;;;;5092841;28;20399;-74
2020/12/27 08:42:03;;;;;;;0.55;0.38;;;6.60;90.40;;;;;;5094445;28;20156;-74
2020/12/27 08:44:38;;;;;;;0.20;0.20;;;6.70;90.50;;;;;;5092934;28;20177;-74
2020/12/27 08:47:04;;;;;;;5.63;1.20;;;6.70;90.30;;;;;;5094268;28;20080;-74
2020/12/27 08:49:48;;;;;;;0.57;0.40;;;6.70;90.40;;;;;;5094139;28;20013;-73
2020/12/27 08:52:23;;;;;;;0.45;0.38;;;6.70;90.10;;;;;;5092732;28;20085;-74
2020/12/27 08:55:11;;;;;;;0.52;0.40;;;6.80;90.00;;;;;;5094319;28;20046;-74
2020/12/27 08:57:41;;;;;;;0.40;0.40;;;6.80;89.90;;;;;;5092431;28;20024;-74
2020/12/27 09:00:08;;;;;;;0.40;0.40;;;6.80;90.20;;;;;;5092614;28;20027;-75
2020/12/27 09:02:35;;;;;;;0.73;0.50;;;6.80;90.00;;;;;;5092853;28;20016;-74
2020/12/27 09:05:06;;;;;;;0.60;0.40;;;6.80;90.20;;;;;;5092681;28;20020;-74
2020/12/27 09:07:43;;;;;;;0.55;0.35;;;6.80;90.30;;;;;;5093838;28;20543;-74
2020/12/27 09:10:12;;;;;;;0.68;0.30;;;6.80;90.20;;;;;;5092325;28;20043;-74
2020/12/27 09:12:58;;;;;;;0.80;0.22;;;6.80;90.20;;;;;;5093642;28;20577;-75
2020/12/27 09:15:24;;;;;;;0.60;0.32;;;6.70;90.10;;;;;;5092210;28;20028;-74
2020/12/27 09:17:54;;;;;;;0.30;0.30;;;6.70;90.00;;;;;;5093531;28;20476;-74
2020/12/27 09:20:21;;;;;;;0.30;0.30;;;6.70;90.00;;;;;;5092166;28;20025;-74
2020/12/27 09:22:47;;;;;;;0.88;0.30;;;6.70;90.10;;;;;;5092145;28;20100;-74
2020/12/27 09:25:19;;;;;;;0.50;0.38;;;6.70;90.10;;;;;;5093382;28;20484;-74
2020/12/27 09:27:46;;;;;;;0.80;0.28;;;6.70;90.10;;;;;;5091967;28;20020;-74
2020/12/27 09:30:25;;;;;;;0.50;0.20;;;6.70;90.30;;;;;;5092491;28;20029;-74
2020/12/27 09:33:00;;;;;;;0.20;0.20;;;6.70;90.10;;;;;;5093472;28;20017;-74
2020/12/27 09:35:28;;;;;;;0.30;0.30;;;6.70;90.00;;;;;;5093424;28;20107;-74
2020/12/27 09:37:54;;;;;;;0.77;0.43;;;6.70;89.90;;;;;;5093340;28;20020;-74
2020/12/27 09:40:20;;;;;;;0.75;0.47;;;6.70;89.90;;;;;;5091978;28;20026;-74
2020/12/27 09:42:47;;;;;;;0.73;0.47;;;6.70;90.00;;;;;;5091774;28;20023;-74
2020/12/27 09:45:23;;;;;;;0.30;0.30;;;6.70;90.40;;;;;;5091808;28;20020;-74
2020/12/27 09:48:02;;;;;;;1.75;0.60;;;6.70;90.20;;;;;;5093806;28;20028;-74
2020/12/27 09:50:36;;;;;;;1.42;0.38;;;6.70;90.70;;;;;;5091637;28;20024;-74
2020/12/27 09:53:05;;;;;;;0.40;0.30;;;6.70;90.60;;;;;;5093236;28;20498;-74
2020/12/27 09:55:33;;;;;;;1.42;0.50;;;6.70;90.60;;;;;;5094015;28;20035;-75
2020/12/27 09:57:59;;;;;;;0.28;0.28;;;6.70;90.40;;;;;;5092287;28;20071;-74
2020/12/27 10:00:25;;;;;;;1.05;0.50;;;6.70;90.50;;;;;;5091684;28;20025;-74
2020/12/27 10:02:51;;;;;;;0.50;0.50;;;6.70;90.40;;;;;;5091544;28;20024;-74
2020/12/27 10:05:17;;;;;;;0.47;0.40;;;6.70;90.40;;;;;;5092863;28;20016;-74
2020/12/27 10:07:44;;;;;;;1.30;0.30;;;6.70;90.30;;;;;;5092785;28;20097;-74
2020/12/27 10:10:11;;;;;;;1.33;0.25;;;6.70;90.40;;;;;;5091606;28;20020;-74
2020/12/27 10:12:38;;;;;;;0.30;0.30;;;6.80;90.60;;;;;;5091380;28;20424;-74
2020/12/27 10:15:08;;;;;;;1.33;0.50;;;6.70;90.80;;;;;;5091280;28;20110;-74
2020/12/27 10:17:34;;;;;;;0.32;0.32;;;6.70;90.50;;;;;;5091286;28;20028;-74
2020/12/27 10:20:00;;;;;;;0.63;0.45;;;6.70;90.70;;;;;;5091985;28;20027;-75
2020/12/27 10:22:26;;;;;;;1.02;0.30;;;6.70;90.70;;;;;;5091369;28;20149;-74
2020/12/27 10:24:52;;;;;;;0.60;0.50;;;6.70;90.70;;;;;;5092384;28;20020;-74
2020/12/27 10:27:32;;;;;;;0.55;0.50;;;6.70;90.90;;;;;;5095716;28;20081;-74
2020/12/27 10:29:59;;;;;;;0.80;0.32;;;6.70;91.20;;;;;;5092848;28;20036;-74
2020/12/27 10:32:24;;;;;;;0.35;0.30;;;6.70;91.20;;;;;;5091216;28;20016;-74
2020/12/27 10:34:50;;;;;;;0.30;0.30;;;6.70;91.00;;;;;;5093572;28;20378;-74
2020/12/27 10:37:16;;;;;;;0.38;0.38;;;6.70;90.90;;;;;;5092170;28;20510;-74
2020/12/27 10:39:41;;;;;;;0.25;0.20;;;6.70;90.80;;;;;;5096848;28;20450;-74
2020/12/27 10:42:07;;;;;;;0.90;0.30;;;6.70;91.00;;;;;;5097040;28;20020;-75
2020/12/27 10:44:32;;;;;;;0.52;0.40;;;6.70;90.90;;;;;;5096596;28;20103;-74
2020/12/27 10:46:58;;;;;;;0.60;0.60;;;6.70;90.80;;;;;;5095409;28;20013;-75
2020/12/27 10:49:24;;;;;;;1.50;0.47;;;6.70;90.80;;;;;;5095039;28;20077;-74
2020/12/27 10:51:50;;;;;;;0.35;0.35;;;6.70;90.80;;;;;;5095189;28;20383;-74
2020/12/27 10:54:16;;;;;;;0.20;0.20;;;6.70;90.80;;;;;;5095404;28;20031;-74
2020/12/27 10:56:43;;;;;;;0.38;0.20;;;6.80;90.80;;;;;;5096821;28;20332;-73
2020/12/27 10:59:08;;;;;;;0.30;0.30;;;6.80;90.90;;;;;;5094912;28;20060;-74
2020/12/27 11:01:34;;;;;;;0.30;0.30;;;6.80;90.80;;;;;;5094845;28;20120;-74
2020/12/27 11:04:00;;;;;;;0.32;0.20;;;6.80;90.50;;;;;;5095295;28;20032;-75
2020/12/27 11:06:35;;;;;;;0.22;0.20;;;6.80;90.80;;;;;;5097404;28;20089;-74
2020/12/27 11:09:00;;;;;;;0.32;0.30;;;6.80;90.60;;;;;;5094842;28;20020;-74
2020/12/27 11:11:26;;;;;;;0.43;0.30;;;6.80;90.40;;;;;;5094756;28;20023;-74
2020/12/27 11:13:52;;;;;;;0.30;0.30;;;6.80;90.30;;;;;;5094651;28;20074;-74
2020/12/27 11:16:18;;;;;;;0.52;0.45;;;6.80;90.10;;;;;;5095941;28;20387;-74
2020/12/27 11:18:44;;;;;;;0.57;0.30;;;6.80;90.10;;;;;;5094782;28;20078;-76
2020/12/27 11:21:10;;;;;;;0.40;0.22;;;6.80;90.10;;;;;;5095859;28;20024;-74
2020/12/27 11:23:35;;;;;;;0.35;0.30;;;6.80;90.00;;;;;;5094631;28;20061;-73
2020/12/27 11:26:01;;;;;;;0.35;0.30;;;6.80;90.00;;;;;;5094420;28;20475;-75
2020/12/27 11:28:27;;;;;;;1.20;0.57;;;6.80;90.00;;;;;;5096112;28;20467;-74
2020/12/27 11:30:52;;;;;;;0.35;0.30;;;6.80;89.90;;;;;;5094375;28;20388;-74
2020/12/27 11:33:21;;;;;;;0.32;0.30;;;6.80;89.80;;;;;;5095135;28;20028;-74
2020/12/27 11:35:47;;;;;;;0.70;0.45;;;6.90;89.80;;;;;;5095191;28;20355;-74
2020/12/27 11:38:13;;;;;;;0.20;0.20;;;6.90;90.00;;;;;;5094775;28;20115;-74
2020/12/27 11:40:41;;;;;;;1.23;0.88;;;6.90;89.70;;;;;;5097065;28;20312;-74
2020/12/27 11:43:06;;;;;;;0.95;0.60;;;6.90;89.30;;;;;;5095064;28;20503;-74
2020/12/27 11:45:32;;;;;;;0.50;0.30;;;6.90;89.10;;;;;;5095237;28;20020;-74
2020/12/27 11:47:58;;;;;;;0.30;0.30;;;6.90;89.00;;;;;;5094214;28;20027;-74
2020/12/27 11:50:23;;;;;;;0.40;0.30;;;6.90;88.90;;;;;;5097112;28;20028;-74
2020/12/27 11:52:49;;;;;;;0.40;0.40;;;7.00;89.30;;;;;;5096278;28;20028;-74
2020/12/27 11:55:15;;;;;;;0.63;0.38;;;7.00;88.90;;;;;;5095302;28;20028;-74
2020/12/27 11:57:40;;;;;;;0.40;0.40;;;7.00;88.80;;;;;;5095026;28;20032;-74
2020/12/27 12:00:06;;;;;;;0.40;0.30;;;7.00;89.30;;;;;;5093850;28;20444;-75
2020/12/27 12:02:32;;;;;;;0.60;0.40;;;7.10;89.10;;;;;;5094034;28;20490;-74
2020/12/27 12:04:58;;;;;;;0.80;0.52;;;7.10;89.00;;;;;;5095115;28;20020;-75
2020/12/27 12:07:23;;;;;;;1.02;0.68;;;7.10;88.70;;;;;;5093689;28;20024;-75
2020/12/27 12:09:49;;;;;;;0.70;0.43;;;7.10;90.00;;;;;;5095374;28;20028;-74
2020/12/27 12:12:15;;;;;;;0.40;0.40;;;7.10;90.00;;;;;;5093409;28;20020;-75
2020/12/27 12:14:40;;;;;;;1.70;0.40;;;7.10;89.50;;;;;;5095019;28;20036;-74
2020/12/27 12:17:06;;;;;;;1.58;1.08;;;7.20;89.40;;;;;;5094691;28;20031;-75
2020/12/27 12:19:32;;;;;;;0.50;0.50;;;7.10;89.40;;;;;;5093423;28;20020;-74
2020/12/27 12:22:16;;;;;;;1.50;0.63;;;7.20;89.10;;;;;;5093279;28;20518;-74
2020/12/27 12:24:42;;;;;;;0.50;0.50;;;7.20;89.50;;;;;;5093495;28;20097;-75
2020/12/27 12:27:07;;;;;;;0.70;0.60;;;7.20;89.20;;;;;;5095035;28;20394;-74
2020/12/27 12:29:33;;;;;;;1.02;0.80;;;7.20;89.10;;;;;;5094712;28;20024;-74
2020/12/27 12:31:59;;;;;;;0.90;0.80;;;7.20;89.40;;;;;;5093225;28;20023;-74
2020/12/27 12:34:24;;;;;;;1.77;0.90;;;7.20;88.80;;;;;;5094542;28;20020;-74
2020/12/27 12:36:50;;;;;;;1.15;0.93;;;7.20;88.60;;;;;;5093062;28;20463;-74
2020/12/27 12:39:16;;;;;;;2.67;0.50;;;7.20;88.10;;;;;;5092942;28;20061;-73
2020/12/27 12:41:41;;;;;;;0.82;0.60;;;7.20;88.40;;;;;;5094188;28;20425;-73
2020/12/27 12:44:07;;;;;;;0.60;0.40;;;7.20;89.00;;;;;;5092950;28;20016;-74
2020/12/27 12:46:32;;;;;;;0.43;0.43;;;7.30;89.20;;;;;;5094192;28;20103;-73
2020/12/27 12:48:58;;;;;;;0.95;0.50;;;7.30;89.70;;;;;;5094121;28;20170;-73
2020/12/27 12:51:24;;;;;;;0.82;0.50;;;7.30;89.80;;;;;;5093968;28;20032;-73
2020/12/27 12:53:50;;;;;;;1.30;0.50;;;7.30;89.50;;;;;;5094052;28;20020;-73
2020/12/27 12:56:16;;;;;;;0.60;0.60;;;7.30;89.60;;;;;;5092944;28;20048;-74
2020/12/27 12:58:42;;;;;;;0.40;0.40;;;7.30;89.40;;;;;;5092428;28;20471;-74
2020/12/27 13:01:11;;;;;;;1.10;0.50;;;7.30;89.00;;;;;;5092277;28;20031;-74